sensor_id;sensor_type;location;lat;lon;timestamp;P1;durP1;ratioP1;P2;durP2;ratioP2
3293;SDS011;1659;51.470;6.770;2022-09-13T00:00:15;8.77;;;5.50;;
3293;SDS011;1659;51.470;6.770;2022-09-13T00:02:42;7.90;;;5.80;;
3293;SDS011;1659;51.470;6.770;2022-09-13T00:05:08;9.07;;;6.47;;
3293;SDS011;1659;51.470;6.770;2022-09-13T00:07:35;9.73;;;6.90;;
3293;SDS011;1659;51.470;6.770;2022-09-13T00:10:03;9.20;;;6.20;;
3293;SDS011;1659;51.470;6.770;2022-09-13T00:12:30;8.57;;;5.83;;
3293;SDS011;1659;51.470;6.770;2022-09-13T00:14:57;8.63;;;5.97;;
3293;SDS011;1659;51.470;6.770;2022-09-13T00:17:24;10.60;;;5.87;;
3293;SDS011;1659;51.470;6.770;2022-09-13T00:19:51;8.67;;;5.87;;
3293;SDS011;1659;51.470;6.770;2022-09-13T00:22:17;8.37;;;6.23;;
3293;SDS011;1659;51.470;6.770;2022-09-13T00:24:44;15.03;;;6.10;;
3293;SDS011;1659;51.470;6.770;2022-09-13T00:27:12;6.27;;;5.37;;
3293;SDS011;1659;51.470;6.770;2022-09-13T00:29:38;8.37;;;5.70;;
3293;SDS011;1659;51.470;6.770;2022-09-13T00:32:05;6.70;;;5.20;;
3293;SDS011;1659;51.470;6.770;2022-09-13T00:34:31;8.23;;;5.70;;
3293;SDS011;1659;51.470;6.770;2022-09-13T00:36:58;6.07;;;4.70;;
3293;SDS011;1659;51.470;6.770;2022-09-13T00:39:24;8.00;;;5.73;;
3293;SDS011;1659;51.470;6.770;2022-09-13T00:41:51;7.60;;;6.03;;
3293;SDS011;1659;51.470;6.770;2022-09-13T00:47:20;5.77;;;5.13;;
3293;SDS011;1659;51.470;6.770;2022-09-13T00:49:50;7.10;;;5.67;;
3293;SDS011;1659;51.470;6.770;2022-09-13T00:52:19;8.63;;;5.63;;
3293;SDS011;1659;51.470;6.770;2022-09-13T00:54:50;9.03;;;6.27;;
3293;SDS011;1659;51.470;6.770;2022-09-13T00:57:23;8.67;;;5.97;;
3293;SDS011;1659;51.470;6.770;2022-09-13T00:59:53;7.80;;;5.80;;
3293;SDS011;1659;51.470;6.770;2022-09-13T01:02:25;10.13;;;5.83;;
3293;SDS011;1659;51.470;6.770;2022-09-13T01:04:52;7.93;;;5.83;;
3293;SDS011;1659;51.470;6.770;2022-09-13T01:07:19;6.37;;;5.43;;
3293;SDS011;1659;51.470;6.770;2022-09-13T01:09:46;9.10;;;6.87;;
3293;SDS011;1659;51.470;6.770;2022-09-13T01:12:16;9.80;;;5.53;;
3293;SDS011;1659;51.470;6.770;2022-09-13T01:14:52;12.93;;;5.60;;
3293;SDS011;1659;51.470;6.770;2022-09-13T01:17:22;8.27;;;5.60;;
3293;SDS011;1659;51.470;6.770;2022-09-13T01:19:49;7.60;;;5.40;;
3293;SDS011;1659;51.470;6.770;2022-09-13T01:22:23;8.90;;;6.70;;
3293;SDS011;1659;51.470;6.770;2022-09-13T01:28:24;7.07;;;5.50;;
3293;SDS011;1659;51.470;6.770;2022-09-13T01:31:10;8.70;;;6.03;;
3293;SDS011;1659;51.470;6.770;2022-09-13T01:33:49;8.90;;;6.40;;
3293;SDS011;1659;51.470;6.770;2022-09-13T01:36:34;7.57;;;5.43;;
3293;SDS011;1659;51.470;6.770;2022-09-13T01:39:16;7.40;;;6.30;;
3293;SDS011;1659;51.470;6.770;2022-09-13T01:41:48;5.77;;;5.10;;
3293;SDS011;1659;51.470;6.770;2022-09-13T01:44:28;8.80;;;6.80;;
3293;SDS011;1659;51.470;6.770;2022-09-13T01:47:05;8.30;;;6.23;;
3293;SDS011;1659;51.470;6.770;2022-09-13T01:49:37;6.40;;;5.30;;
3293;SDS011;1659;51.470;6.770;2022-09-13T01:52:13;11.40;;;5.87;;
3293;SDS011;1659;51.470;6.770;2022-09-13T01:54:49;6.97;;;6.07;;
3293;SDS011;1659;51.470;6.770;2022-09-13T01:57:23;7.93;;;6.47;;
3293;SDS011;1659;51.470;6.770;2022-09-13T01:59:55;8.93;;;5.60;;
3293;SDS011;1659;51.470;6.770;2022-09-13T02:02:28;8.30;;;6.70;;
3293;SDS011;1659;51.470;6.770;2022-09-13T02:05:00;6.80;;;5.60;;
3293;SDS011;1659;51.470;6.770;2022-09-13T02:07:31;7.27;;;5.00;;
3293;SDS011;1659;51.470;6.770;2022-09-13T02:10:02;10.50;;;5.73;;
3293;SDS011;1659;51.470;6.770;2022-09-13T02:12:33;6.70;;;5.90;;
3293;SDS011;1659;51.470;6.770;2022-09-13T02:15:03;9.40;;;5.70;;
3293;SDS011;1659;51.470;6.770;2022-09-13T02:17:37;8.83;;;5.40;;
3293;SDS011;1659;51.470;6.770;2022-09-13T02:20:07;9.43;;;6.70;;
3293;SDS011;1659;51.470;6.770;2022-09-13T02:22:40;7.53;;;5.93;;
3293;SDS011;1659;51.470;6.770;2022-09-13T02:25:11;8.80;;;6.17;;
3293;SDS011;1659;51.470;6.770;2022-09-13T02:27:40;9.70;;;6.27;;
3293;SDS011;1659;51.470;6.770;2022-09-13T02:30:12;9.57;;;5.80;;
3293;SDS011;1659;51.470;6.770;2022-09-13T02:32:41;6.87;;;5.90;;
3293;SDS011;1659;51.470;6.770;2022-09-13T02:35:15;7.00;;;5.57;;
3293;SDS011;1659;51.470;6.770;2022-09-13T02:37:44;7.40;;;5.77;;
3293;SDS011;1659;51.470;6.770;2022-09-13T02:40:15;10.00;;;6.40;;
3293;SDS011;1659;51.470;6.770;2022-09-13T02:42:46;9.53;;;5.90;;
3293;SDS011;1659;51.470;6.770;2022-09-13T02:45:18;8.87;;;5.53;;
3293;SDS011;1659;51.470;6.770;2022-09-13T02:47:53;8.00;;;5.73;;
3293;SDS011;1659;51.470;6.770;2022-09-13T02:50:30;7.00;;;6.00;;
3293;SDS011;1659;51.470;6.770;2022-09-13T02:53:03;7.83;;;5.73;;
3293;SDS011;1659;51.470;6.770;2022-09-13T02:55:39;6.70;;;6.00;;
3293;SDS011;1659;51.470;6.770;2022-09-13T02:58:11;8.33;;;5.73;;
3293;SDS011;1659;51.470;6.770;2022-09-13T03:00:41;6.83;;;5.27;;
3293;SDS011;1659;51.470;6.770;2022-09-13T03:03:11;10.60;;;6.30;;
3293;SDS011;1659;51.470;6.770;2022-09-13T03:05:42;10.23;;;6.30;;
3293;SDS011;1659;51.470;6.770;2022-09-13T03:08:09;7.73;;;6.53;;
3293;SDS011;1659;51.470;6.770;2022-09-13T03:10:43;11.43;;;6.90;;
3293;SDS011;1659;51.470;6.770;2022-09-13T03:13:21;8.53;;;5.90;;
3293;SDS011;1659;51.470;6.770;2022-09-13T03:16:03;8.20;;;6.83;;
3293;SDS011;1659;51.470;6.770;2022-09-13T03:18:39;8.17;;;6.70;;
3293;SDS011;1659;51.470;6.770;2022-09-13T03:21:20;15.37;;;7.60;;
3293;SDS011;1659;51.470;6.770;2022-09-13T03:24:01;10.00;;;6.87;;
3293;SDS011;1659;51.470;6.770;2022-09-13T03:26:43;12.37;;;6.97;;
3293;SDS011;1659;51.470;6.770;2022-09-13T03:29:22;9.07;;;7.03;;
3293;SDS011;1659;51.470;6.770;2022-09-13T03:31:58;11.33;;;7.20;;
3293;SDS011;1659;51.470;6.770;2022-09-13T03:34:35;12.83;;;7.13;;
3293;SDS011;1659;51.470;6.770;2022-09-13T03:37:09;11.03;;;7.17;;
3293;SDS011;1659;51.470;6.770;2022-09-13T03:39:44;8.97;;;6.77;;
3293;SDS011;1659;51.470;6.770;2022-09-13T03:42:17;9.30;;;6.13;;
3293;SDS011;1659;51.470;6.770;2022-09-13T03:44:49;10.07;;;7.10;;
3293;SDS011;1659;51.470;6.770;2022-09-13T03:47:18;8.37;;;6.80;;
3293;SDS011;1659;51.470;6.770;2022-09-13T03:49:49;10.37;;;7.87;;
3293;SDS011;1659;51.470;6.770;2022-09-13T03:52:16;11.80;;;7.77;;
3293;SDS011;1659;51.470;6.770;2022-09-13T03:54:44;12.83;;;7.37;;
3293;SDS011;1659;51.470;6.770;2022-09-13T03:57:11;17.30;;;8.37;;
3293;SDS011;1659;51.470;6.770;2022-09-13T03:59:40;10.10;;;7.13;;
3293;SDS011;1659;51.470;6.770;2022-09-13T04:02:11;11.17;;;7.20;;
3293;SDS011;1659;51.470;6.770;2022-09-13T04:04:38;11.93;;;7.10;;
3293;SDS011;1659;51.470;6.770;2022-09-13T04:07:07;10.77;;;7.97;;
3293;SDS011;1659;51.470;6.770;2022-09-13T04:09:34;12.40;;;7.60;;
3293;SDS011;1659;51.470;6.770;2022-09-13T04:12:01;12.00;;;7.43;;
3293;SDS011;1659;51.470;6.770;2022-09-13T04:14:28;11.73;;;7.57;;
3293;SDS011;1659;51.470;6.770;2022-09-13T04:16:55;9.77;;;7.40;;
3293;SDS011;1659;51.470;6.770;2022-09-13T04:19:23;12.60;;;7.33;;
3293;SDS011;1659;51.470;6.770;2022-09-13T04:21:51;12.17;;;8.00;;
3293;SDS011;1659;51.470;6.770;2022-09-13T04:24:20;10.13;;;7.03;;
3293;SDS011;1659;51.470;6.770;2022-09-13T04:26:50;11.10;;;7.97;;
3293;SDS011;1659;51.470;6.770;2022-09-13T04:29:17;11.53;;;7.50;;
3293;SDS011;1659;51.470;6.770;2022-09-13T04:31:43;14.57;;;8.00;;
3293;SDS011;1659;51.470;6.770;2022-09-13T04:34:10;12.77;;;7.90;;
3293;SDS011;1659;51.470;6.770;2022-09-13T04:36:37;10.40;;;7.53;;
3293;SDS011;1659;51.470;6.770;2022-09-13T04:39:04;10.93;;;8.93;;
3293;SDS011;1659;51.470;6.770;2022-09-13T04:41:32;10.60;;;9.07;;
3293;SDS011;1659;51.470;6.770;2022-09-13T04:43:59;12.30;;;9.70;;
3293;SDS011;1659;51.470;6.770;2022-09-13T04:46:25;12.73;;;10.90;;
3293;SDS011;1659;51.470;6.770;2022-09-13T04:48:52;16.33;;;11.17;;
3293;SDS011;1659;51.470;6.770;2022-09-13T04:51:19;22.27;;;12.13;;
3293;SDS011;1659;51.470;6.770;2022-09-13T04:53:50;16.17;;;12.20;;
3293;SDS011;1659;51.470;6.770;2022-09-13T04:56:17;17.07;;;11.27;;
3293;SDS011;1659;51.470;6.770;2022-09-13T04:58:46;27.13;;;12.20;;
3293;SDS011;1659;51.470;6.770;2022-09-13T05:01:12;14.33;;;10.23;;
3293;SDS011;1659;51.470;6.770;2022-09-13T05:03:39;18.97;;;11.27;;
3293;SDS011;1659;51.470;6.770;2022-09-13T05:06:06;16.90;;;11.73;;
3293;SDS011;1659;51.470;6.770;2022-09-13T05:08:34;19.77;;;11.90;;
3293;SDS011;1659;51.470;6.770;2022-09-13T05:11:02;15.10;;;11.30;;
3293;SDS011;1659;51.470;6.770;2022-09-13T05:13:29;14.23;;;10.03;;
3293;SDS011;1659;51.470;6.770;2022-09-13T05:15:58;15.43;;;10.30;;
3293;SDS011;1659;51.470;6.770;2022-09-13T05:18:26;12.83;;;9.53;;
3293;SDS011;1659;51.470;6.770;2022-09-13T05:20:53;17.13;;;10.60;;
3293;SDS011;1659;51.470;6.770;2022-09-13T05:23:21;14.73;;;10.30;;
3293;SDS011;1659;51.470;6.770;2022-09-13T05:25:51;14.80;;;8.80;;
3293;SDS011;1659;51.470;6.770;2022-09-13T05:28:18;13.73;;;8.70;;
3293;SDS011;1659;51.470;6.770;2022-09-13T05:30:52;17.07;;;9.00;;
3293;SDS011;1659;51.470;6.770;2022-09-13T05:33:21;15.40;;;9.40;;
3293;SDS011;1659;51.470;6.770;2022-09-13T05:35:48;12.23;;;9.30;;
3293;SDS011;1659;51.470;6.770;2022-09-13T05:38:15;17.00;;;9.77;;
3293;SDS011;1659;51.470;6.770;2022-09-13T05:40:41;15.50;;;9.70;;
3293;SDS011;1659;51.470;6.770;2022-09-13T05:43:08;21.50;;;10.63;;
3293;SDS011;1659;51.470;6.770;2022-09-13T05:45:34;17.57;;;9.70;;
3293;SDS011;1659;51.470;6.770;2022-09-13T05:48:01;17.97;;;9.37;;
3293;SDS011;1659;51.470;6.770;2022-09-13T05:50:29;16.70;;;9.27;;
3293;SDS011;1659;51.470;6.770;2022-09-13T05:52:56;17.67;;;9.37;;
3293;SDS011;1659;51.470;6.770;2022-09-13T05:55:23;17.73;;;11.00;;
3293;SDS011;1659;51.470;6.770;2022-09-13T05:57:51;23.50;;;10.40;;
3293;SDS011;1659;51.470;6.770;2022-09-13T06:00:18;15.50;;;9.80;;
3293;SDS011;1659;51.470;6.770;2022-09-13T06:02:44;14.27;;;9.63;;
3293;SDS011;1659;51.470;6.770;2022-09-13T06:05:11;14.47;;;9.50;;
3293;SDS011;1659;51.470;6.770;2022-09-13T06:07:40;18.13;;;10.03;;
3293;SDS011;1659;51.470;6.770;2022-09-13T06:10:07;15.13;;;10.00;;
3293;SDS011;1659;51.470;6.770;2022-09-13T06:12:34;24.03;;;10.10;;
3293;SDS011;1659;51.470;6.770;2022-09-13T06:15:01;18.53;;;10.90;;
3293;SDS011;1659;51.470;6.770;2022-09-13T06:17:28;15.83;;;8.97;;
3293;SDS011;1659;51.470;6.770;2022-09-13T06:19:54;15.87;;;10.00;;
3293;SDS011;1659;51.470;6.770;2022-09-13T06:22:21;19.17;;;9.33;;
3293;SDS011;1659;51.470;6.770;2022-09-13T06:24:49;16.13;;;10.63;;
3293;SDS011;1659;51.470;6.770;2022-09-13T06:27:16;18.87;;;9.93;;
3293;SDS011;1659;51.470;6.770;2022-09-13T06:29:42;15.47;;;9.97;;
3293;SDS011;1659;51.470;6.770;2022-09-13T06:32:09;27.67;;;10.93;;
3293;SDS011;1659;51.470;6.770;2022-09-13T06:34:35;18.27;;;10.43;;
3293;SDS011;1659;51.470;6.770;2022-09-13T06:37:02;14.13;;;9.70;;
3293;SDS011;1659;51.470;6.770;2022-09-13T06:39:29;19.87;;;10.27;;
3293;SDS011;1659;51.470;6.770;2022-09-13T06:41:57;14.60;;;10.23;;
3293;SDS011;1659;51.470;6.770;2022-09-13T06:44:24;18.90;;;11.17;;
3293;SDS011;1659;51.470;6.770;2022-09-13T06:46:50;18.57;;;10.47;;
3293;SDS011;1659;51.470;6.770;2022-09-13T06:49:17;16.83;;;9.90;;
3293;SDS011;1659;51.470;6.770;2022-09-13T06:51:43;21.77;;;10.77;;
3293;SDS011;1659;51.470;6.770;2022-09-13T06:54:10;16.03;;;10.13;;
3293;SDS011;1659;51.470;6.770;2022-09-13T06:56:37;29.40;;;10.23;;
3293;SDS011;1659;51.470;6.770;2022-09-13T06:59:06;21.80;;;10.63;;
3293;SDS011;1659;51.470;6.770;2022-09-13T07:01:35;17.00;;;10.40;;
3293;SDS011;1659;51.470;6.770;2022-09-13T07:04:03;17.47;;;10.20;;
3293;SDS011;1659;51.470;6.770;2022-09-13T07:06:32;22.07;;;9.73;;
3293;SDS011;1659;51.470;6.770;2022-09-13T07:09:01;22.03;;;10.43;;
3293;SDS011;1659;51.470;6.770;2022-09-13T07:11:30;23.30;;;10.77;;
3293;SDS011;1659;51.470;6.770;2022-09-13T07:13:58;16.63;;;9.53;;
3293;SDS011;1659;51.470;6.770;2022-09-13T07:16:27;14.83;;;9.40;;
3293;SDS011;1659;51.470;6.770;2022-09-13T07:18:55;15.57;;;9.43;;
3293;SDS011;1659;51.470;6.770;2022-09-13T07:21:22;18.03;;;8.53;;
3293;SDS011;1659;51.470;6.770;2022-09-13T07:23:50;17.33;;;9.63;;
3293;SDS011;1659;51.470;6.770;2022-09-13T07:26:17;17.00;;;8.93;;
3293;SDS011;1659;51.470;6.770;2022-09-13T07:28:45;18.20;;;9.27;;
3293;SDS011;1659;51.470;6.770;2022-09-13T07:31:13;18.03;;;10.50;;
3293;SDS011;1659;51.470;6.770;2022-09-13T07:33:43;12.17;;;7.80;;
3293;SDS011;1659;51.470;6.770;2022-09-13T07:36:10;14.80;;;8.93;;
3293;SDS011;1659;51.470;6.770;2022-09-13T07:38:38;17.60;;;10.00;;
3293;SDS011;1659;51.470;6.770;2022-09-13T07:41:11;10.33;;;7.93;;
3293;SDS011;1659;51.470;6.770;2022-09-13T07:43:39;10.47;;;7.53;;
3293;SDS011;1659;51.470;6.770;2022-09-13T07:46:06;15.13;;;8.67;;
3293;SDS011;1659;51.470;6.770;2022-09-13T07:48:35;11.57;;;7.30;;
3293;SDS011;1659;51.470;6.770;2022-09-13T07:51:05;10.17;;;7.47;;
3293;SDS011;1659;51.470;6.770;2022-09-13T07:53:33;12.67;;;8.30;;
3293;SDS011;1659;51.470;6.770;2022-09-13T07:56:01;10.37;;;7.60;;
3293;SDS011;1659;51.470;6.770;2022-09-13T07:58:29;10.10;;;7.47;;
3293;SDS011;1659;51.470;6.770;2022-09-13T08:00:57;12.70;;;8.90;;
3293;SDS011;1659;51.470;6.770;2022-09-13T08:03:28;10.33;;;7.80;;
3293;SDS011;1659;51.470;6.770;2022-09-13T08:05:55;20.90;;;9.00;;
3293;SDS011;1659;51.470;6.770;2022-09-13T08:08:23;12.70;;;7.47;;
3293;SDS011;1659;51.470;6.770;2022-09-13T08:10:49;17.30;;;8.47;;
3293;SDS011;1659;51.470;6.770;2022-09-13T08:13:16;13.77;;;8.50;;
3293;SDS011;1659;51.470;6.770;2022-09-13T08:15:42;14.87;;;9.57;;
3293;SDS011;1659;51.470;6.770;2022-09-13T08:18:09;12.70;;;8.37;;
3293;SDS011;1659;51.470;6.770;2022-09-13T08:20:36;14.60;;;9.53;;
3293;SDS011;1659;51.470;6.770;2022-09-13T08:23:03;12.63;;;7.90;;
3293;SDS011;1659;51.470;6.770;2022-09-13T08:25:32;13.63;;;8.13;;
3293;SDS011;1659;51.470;6.770;2022-09-13T08:27:59;11.87;;;8.07;;
3293;SDS011;1659;51.470;6.770;2022-09-13T08:30:26;12.13;;;8.13;;
3293;SDS011;1659;51.470;6.770;2022-09-13T08:32:57;17.60;;;9.10;;
3293;SDS011;1659;51.470;6.770;2022-09-13T08:35:24;11.87;;;8.10;;
3293;SDS011;1659;51.470;6.770;2022-09-13T08:37:50;12.13;;;8.33;;
3293;SDS011;1659;51.470;6.770;2022-09-13T08:40:17;13.53;;;8.90;;
3293;SDS011;1659;51.470;6.770;2022-09-13T08:42:47;13.43;;;8.60;;
3293;SDS011;1659;51.470;6.770;2022-09-13T08:45:19;10.70;;;8.20;;
3293;SDS011;1659;51.470;6.770;2022-09-13T08:47:48;12.07;;;9.63;;
3293;SDS011;1659;51.470;6.770;2022-09-13T08:50:20;14.77;;;10.20;;
3293;SDS011;1659;51.470;6.770;2022-09-13T08:52:57;15.60;;;9.80;;
3293;SDS011;1659;51.470;6.770;2022-09-13T08:55:40;12.33;;;9.60;;
3293;SDS011;1659;51.470;6.770;2022-09-13T08:58:35;16.20;;;10.70;;
3293;SDS011;1659;51.470;6.770;2022-09-13T09:01:12;13.30;;;8.30;;
3293;SDS011;1659;51.470;6.770;2022-09-13T09:03:48;13.53;;;10.00;;
3293;SDS011;1659;51.470;6.770;2022-09-13T09:06:21;15.07;;;9.20;;
3293;SDS011;1659;51.470;6.770;2022-09-13T09:08:50;15.80;;;10.37;;
3293;SDS011;1659;51.470;6.770;2022-09-13T09:11:25;14.50;;;10.03;;
3293;SDS011;1659;51.470;6.770;2022-09-13T09:14:00;16.40;;;10.60;;
3293;SDS011;1659;51.470;6.770;2022-09-13T09:16:32;16.97;;;9.93;;
3293;SDS011;1659;51.470;6.770;2022-09-13T09:19:05;16.77;;;12.73;;
3293;SDS011;1659;51.470;6.770;2022-09-13T09:21:38;19.80;;;10.93;;
3293;SDS011;1659;51.470;6.770;2022-09-13T09:24:05;12.00;;;10.00;;
3293;SDS011;1659;51.470;6.770;2022-09-13T09:26:37;14.40;;;10.17;;
3293;SDS011;1659;51.470;6.770;2022-09-13T09:29:15;15.67;;;10.37;;
3293;SDS011;1659;51.470;6.770;2022-09-13T09:31:45;13.30;;;8.57;;
3293;SDS011;1659;51.470;6.770;2022-09-13T09:34:19;12.30;;;8.20;;
3293;SDS011;1659;51.470;6.770;2022-09-13T09:37:07;10.93;;;7.20;;
3293;SDS011;1659;51.470;6.770;2022-09-13T09:39:40;10.73;;;7.93;;
3293;SDS011;1659;51.470;6.770;2022-09-13T09:42:09;9.07;;;8.17;;
3293;SDS011;1659;51.470;6.770;2022-09-13T09:44:40;9.43;;;7.63;;
3293;SDS011;1659;51.470;6.770;2022-09-13T09:47:11;10.67;;;7.70;;
3293;SDS011;1659;51.470;6.770;2022-09-13T09:49:41;10.43;;;8.00;;
3293;SDS011;1659;51.470;6.770;2022-09-13T09:52:28;12.30;;;7.30;;
3293;SDS011;1659;51.470;6.770;2022-09-13T09:55:03;8.77;;;7.43;;
3293;SDS011;1659;51.470;6.770;2022-09-13T09:57:49;12.87;;;7.63;;
3293;SDS011;1659;51.470;6.770;2022-09-13T10:00:19;12.50;;;7.00;;
3293;SDS011;1659;51.470;6.770;2022-09-13T10:02:48;10.17;;;7.23;;
3293;SDS011;1659;51.470;6.770;2022-09-13T10:05:18;8.37;;;7.47;;
3293;SDS011;1659;51.470;6.770;2022-09-13T10:07:51;12.50;;;9.30;;
3293;SDS011;1659;51.470;6.770;2022-09-13T10:10:20;20.07;;;8.97;;
3293;SDS011;1659;51.470;6.770;2022-09-13T10:12:51;11.50;;;8.00;;
3293;SDS011;1659;51.470;6.770;2022-09-13T10:15:21;13.43;;;8.53;;
3293;SDS011;1659;51.470;6.770;2022-09-13T10:18:01;13.00;;;8.90;;
3293;SDS011;1659;51.470;6.770;2022-09-13T10:20:59;13.33;;;8.37;;
3293;SDS011;1659;51.470;6.770;2022-09-13T10:23:27;12.47;;;8.03;;
3293;SDS011;1659;51.470;6.770;2022-09-13T10:25:55;11.80;;;8.00;;
3293;SDS011;1659;51.470;6.770;2022-09-13T10:28:26;9.97;;;8.20;;
3293;SDS011;1659;51.470;6.770;2022-09-13T10:30:57;17.13;;;7.63;;
3293;SDS011;1659;51.470;6.770;2022-09-13T10:33:28;11.03;;;7.37;;
3293;SDS011;1659;51.470;6.770;2022-09-13T10:35:57;11.40;;;8.03;;
3293;SDS011;1659;51.470;6.770;2022-09-13T10:38:28;19.73;;;11.43;;
3293;SDS011;1659;51.470;6.770;2022-09-13T10:40:56;15.90;;;9.93;;
3293;SDS011;1659;51.470;6.770;2022-09-13T10:43:26;19.47;;;12.13;;
3293;SDS011;1659;51.470;6.770;2022-09-13T10:45:55;24.13;;;12.70;;
3293;SDS011;1659;51.470;6.770;2022-09-13T10:48:24;24.87;;;13.23;;
3293;SDS011;1659;51.470;6.770;2022-09-13T10:51:00;17.23;;;12.77;;
3293;SDS011;1659;51.470;6.770;2022-09-13T10:53:30;23.53;;;13.10;;
3293;SDS011;1659;51.470;6.770;2022-09-13T10:56:00;23.07;;;11.43;;
3293;SDS011;1659;51.470;6.770;2022-09-13T10:58:27;14.77;;;10.47;;
3293;SDS011;1659;51.470;6.770;2022-09-13T11:01:17;15.37;;;9.80;;
3293;SDS011;1659;51.470;6.770;2022-09-13T11:04:13;15.43;;;11.13;;
3293;SDS011;1659;51.470;6.770;2022-09-13T11:06:53;18.23;;;13.67;;
3293;SDS011;1659;51.470;6.770;2022-09-13T11:09:30;21.37;;;14.37;;
3293;SDS011;1659;51.470;6.770;2022-09-13T11:12:03;14.80;;;12.00;;
3293;SDS011;1659;51.470;6.770;2022-09-13T11:14:43;19.17;;;12.97;;
3293;SDS011;1659;51.470;6.770;2022-09-13T11:17:24;17.47;;;12.23;;
3293;SDS011;1659;51.470;6.770;2022-09-13T11:23:04;18.57;;;12.13;;
3293;SDS011;1659;51.470;6.770;2022-09-13T11:25:46;19.70;;;11.77;;
3293;SDS011;1659;51.470;6.770;2022-09-13T11:28:24;16.93;;;12.23;;
3293;SDS011;1659;51.470;6.770;2022-09-13T11:31:09;23.00;;;11.77;;
3293;SDS011;1659;51.470;6.770;2022-09-13T11:33:52;17.00;;;10.73;;
3293;SDS011;1659;51.470;6.770;2022-09-13T11:39:25;13.47;;;10.40;;
3293;SDS011;1659;51.470;6.770;2022-09-13T11:42:00;12.10;;;9.47;;
3293;SDS011;1659;51.470;6.770;2022-09-13T11:47:43;12.63;;;9.90;;
3293;SDS011;1659;51.470;6.770;2022-09-13T11:50:35;12.70;;;9.80;;
3293;SDS011;1659;51.470;6.770;2022-09-13T11:53:12;11.47;;;8.70;;
3293;SDS011;1659;51.470;6.770;2022-09-13T11:55:54;14.50;;;10.87;;
3293;SDS011;1659;51.470;6.770;2022-09-13T11:58:27;18.67;;;11.97;;
3293;SDS011;1659;51.470;6.770;2022-09-13T12:00:59;11.07;;;8.70;;
3293;SDS011;1659;51.470;6.770;2022-09-13T12:03:29;9.90;;;8.87;;
3293;SDS011;1659;51.470;6.770;2022-09-13T12:06:05;12.27;;;8.60;;
3293;SDS011;1659;51.470;6.770;2022-09-13T12:08:37;10.60;;;8.20;;
3293;SDS011;1659;51.470;6.770;2022-09-13T12:11:08;11.40;;;8.67;;
3293;SDS011;1659;51.470;6.770;2022-09-13T12:13:39;12.70;;;9.77;;
3293;SDS011;1659;51.470;6.770;2022-09-13T12:16:11;12.93;;;9.57;;
3293;SDS011;1659;51.470;6.770;2022-09-13T12:18:43;13.50;;;10.80;;
3293;SDS011;1659;51.470;6.770;2022-09-13T12:21:14;9.30;;;8.30;;
3293;SDS011;1659;51.470;6.770;2022-09-13T12:23:45;14.00;;;10.40;;
3293;SDS011;1659;51.470;6.770;2022-09-13T12:26:19;15.57;;;10.47;;
3293;SDS011;1659;51.470;6.770;2022-09-13T12:28:49;9.83;;;8.20;;
3293;SDS011;1659;51.470;6.770;2022-09-13T12:31:20;12.60;;;8.40;;
3293;SDS011;1659;51.470;6.770;2022-09-13T12:33:49;12.03;;;9.20;;
3293;SDS011;1659;51.470;6.770;2022-09-13T12:36:22;12.90;;;8.17;;
3293;SDS011;1659;51.470;6.770;2022-09-13T12:39:18;8.70;;;7.90;;
3293;SDS011;1659;51.470;6.770;2022-09-13T12:42:00;12.87;;;8.80;;
3293;SDS011;1659;51.470;6.770;2022-09-13T12:44:59;19.57;;;9.93;;
3293;SDS011;1659;51.470;6.770;2022-09-13T12:47:48;10.53;;;9.00;;
3293;SDS011;1659;51.470;6.770;2022-09-13T12:53:26;11.30;;;8.77;;
3293;SDS011;1659;51.470;6.770;2022-09-13T12:56:28;12.17;;;10.00;;
3293;SDS011;1659;51.470;6.770;2022-09-13T12:59:14;9.40;;;7.80;;
3293;SDS011;1659;51.470;6.770;2022-09-13T13:01:50;10.77;;;9.30;;
3293;SDS011;1659;51.470;6.770;2022-09-13T13:04:18;12.07;;;10.70;;
3293;SDS011;1659;51.470;6.770;2022-09-13T13:06:49;13.90;;;10.10;;
3293;SDS011;1659;51.470;6.770;2022-09-13T13:09:23;14.27;;;10.40;;
3293;SDS011;1659;51.470;6.770;2022-09-13T13:11:56;16.70;;;12.67;;
3293;SDS011;1659;51.470;6.770;2022-09-13T13:14:27;19.20;;;13.90;;
3293;SDS011;1659;51.470;6.770;2022-09-13T13:23:14;15.00;;;10.30;;
3293;SDS011;1659;51.470;6.770;2022-09-13T13:26:03;15.70;;;11.93;;
3293;SDS011;1659;51.470;6.770;2022-09-13T13:31:39;12.50;;;9.50;;
3293;SDS011;1659;51.470;6.770;2022-09-13T13:34:27;10.70;;;7.90;;
3293;SDS011;1659;51.470;6.770;2022-09-13T13:37:03;16.63;;;10.17;;
3293;SDS011;1659;51.470;6.770;2022-09-13T13:39:48;10.00;;;8.13;;
3293;SDS011;1659;51.470;6.770;2022-09-13T13:42:46;12.93;;;9.70;;
3293;SDS011;1659;51.470;6.770;2022-09-13T13:45:14;9.40;;;8.03;;
3293;SDS011;1659;51.470;6.770;2022-09-13T13:53:59;11.50;;;8.97;;
3293;SDS011;1659;51.470;6.770;2022-09-13T13:56:33;10.50;;;7.60;;
3293;SDS011;1659;51.470;6.770;2022-09-13T13:59:13;10.73;;;8.43;;
3293;SDS011;1659;51.470;6.770;2022-09-13T14:01:46;11.27;;;9.20;;
3293;SDS011;1659;51.470;6.770;2022-09-13T14:04:38;9.73;;;7.67;;
3293;SDS011;1659;51.470;6.770;2022-09-13T14:07:38;8.10;;;7.30;;
3293;SDS011;1659;51.470;6.770;2022-09-13T14:10:32;12.07;;;9.83;;
3293;SDS011;1659;51.470;6.770;2022-09-13T14:13:32;14.20;;;9.63;;
3293;SDS011;1659;51.470;6.770;2022-09-13T14:16:11;11.73;;;7.87;;
3293;SDS011;1659;51.470;6.770;2022-09-13T14:18:51;15.30;;;10.10;;
3293;SDS011;1659;51.470;6.770;2022-09-13T14:21:30;11.63;;;9.37;;
3293;SDS011;1659;51.470;6.770;2022-09-13T14:26:49;9.37;;;7.60;;
3293;SDS011;1659;51.470;6.770;2022-09-13T14:29:18;9.90;;;7.87;;
3293;SDS011;1659;51.470;6.770;2022-09-13T14:31:48;12.77;;;9.77;;
3293;SDS011;1659;51.470;6.770;2022-09-13T14:34:19;13.57;;;10.93;;
3293;SDS011;1659;51.470;6.770;2022-09-13T14:36:50;17.10;;;12.27;;
3293;SDS011;1659;51.470;6.770;2022-09-13T14:39:18;17.33;;;12.23;;
3293;SDS011;1659;51.470;6.770;2022-09-13T14:41:45;16.67;;;12.17;;
3293;SDS011;1659;51.470;6.770;2022-09-13T14:44:15;11.00;;;8.90;;
3293;SDS011;1659;51.470;6.770;2022-09-13T14:46:45;14.87;;;10.10;;
3293;SDS011;1659;51.470;6.770;2022-09-13T14:49:19;14.17;;;9.70;;
3293;SDS011;1659;51.470;6.770;2022-09-13T14:51:50;15.30;;;10.33;;
3293;SDS011;1659;51.470;6.770;2022-09-13T14:54:24;11.97;;;8.50;;
3293;SDS011;1659;51.470;6.770;2022-09-13T14:56:57;15.50;;;8.83;;
3293;SDS011;1659;51.470;6.770;2022-09-13T14:59:27;13.43;;;10.33;;
3293;SDS011;1659;51.470;6.770;2022-09-13T15:01:58;12.93;;;9.80;;
3293;SDS011;1659;51.470;6.770;2022-09-13T15:04:31;10.93;;;7.70;;
3293;SDS011;1659;51.470;6.770;2022-09-13T15:07:05;15.73;;;9.07;;
3293;SDS011;1659;51.470;6.770;2022-09-13T15:09:33;14.03;;;9.30;;
3293;SDS011;1659;51.470;6.770;2022-09-13T15:12:02;14.20;;;9.67;;
3293;SDS011;1659;51.470;6.770;2022-09-13T15:14:30;12.00;;;9.50;;
3293;SDS011;1659;51.470;6.770;2022-09-13T15:17:05;14.67;;;9.37;;
3293;SDS011;1659;51.470;6.770;2022-09-13T15:19:39;13.53;;;10.43;;
3293;SDS011;1659;51.470;6.770;2022-09-13T15:24:53;14.53;;;11.37;;
3293;SDS011;1659;51.470;6.770;2022-09-13T15:27:23;10.40;;;8.70;;
3293;SDS011;1659;51.470;6.770;2022-09-13T15:29:52;18.33;;;12.60;;
3293;SDS011;1659;51.470;6.770;2022-09-13T15:32:23;18.07;;;11.20;;
3293;SDS011;1659;51.470;6.770;2022-09-13T15:34:55;15.53;;;9.33;;
3293;SDS011;1659;51.470;6.770;2022-09-13T15:37:27;14.77;;;11.37;;
3293;SDS011;1659;51.470;6.770;2022-09-13T15:40:13;15.87;;;10.80;;
3293;SDS011;1659;51.470;6.770;2022-09-13T15:42:44;19.00;;;12.67;;
3293;SDS011;1659;51.470;6.770;2022-09-13T15:45:11;16.33;;;11.30;;
3293;SDS011;1659;51.470;6.770;2022-09-13T15:47:39;22.13;;;13.00;;
3293;SDS011;1659;51.470;6.770;2022-09-13T15:50:06;16.40;;;11.93;;
3293;SDS011;1659;51.470;6.770;2022-09-13T15:52:43;16.50;;;10.00;;
3293;SDS011;1659;51.470;6.770;2022-09-13T15:55:10;18.03;;;12.83;;
3293;SDS011;1659;51.470;6.770;2022-09-13T15:57:37;17.93;;;11.30;;
3293;SDS011;1659;51.470;6.770;2022-09-13T16:00:05;18.70;;;9.10;;
3293;SDS011;1659;51.470;6.770;2022-09-13T16:02:32;10.40;;;8.90;;
3293;SDS011;1659;51.470;6.770;2022-09-13T16:05:01;15.60;;;11.93;;
3293;SDS011;1659;51.470;6.770;2022-09-13T16:07:27;13.17;;;9.73;;